Terminal Aerodrome Forecast
Issued by NWS

Home | Current Version | Previous Version | Text Only | Print | Product List | Glossary On
Versions: 1 2 3 4 5 6 7 8 9 10 11 12 13 14 15 16 17 18 19 20 21 22 23
000
FTUS46 KMFR 231100
TAFOTH
TAF
KOTH 231134Z 2312/2412 21008KT 6SM -RA BR SCT006 BKN014 OVC020
     FM231800 23010KT P6SM -SHRA SCT025 BKN035
     FM240200 18005KT P6SM VCSH SCT035 SCT050 BKN100
     FM240600 15004KT 3SM BR BKN008=

USA.gov is the U.S. government's official web portal to all federal, state and local government web resources and services.